Time;durP1;ratioP1;P1;durP2;ratioP2;P2;SDS_P1;SDS_P2;PMS_P1;PMS_P2;Temp;Humidity;BMP_temperature;BMP_pressure;BME280_temperature;BME280_humidity;BME280_pressure;Samples;Min_cycle;Max_cycle;Signal;HPM_P1;HPM_P2
2022/03/09 00:00:21;;;;;;;4.68;3.10;;;4.30;99.90;;;;;;5022992;28;20033;-80
2022/03/09 00:02:47;;;;;;;4.13;2.90;;;4.40;99.90;;;;;;5019231;28;20048;-82
2022/03/09 00:05:19;;;;;;;6.35;3.50;;;5.00;99.90;;;;;;5012273;28;20029;-84
2022/03/09 00:07:47;;;;;;;4.78;2.90;;;4.30;99.90;;;;;;4995522;28;20033;-88
2022/03/09 00:10:32;;;;;;;5.30;3.10;;;4.30;99.90;;;;;;5022978;28;20039;-81
2022/03/09 00:12:57;;;;;;;5.50;3.22;;;4.50;99.90;;;;;;5011041;28;20037;-83
2022/03/09 00:15:26;;;;;;;5.50;3.30;;;4.60;99.90;;;;;;4997808;28;20040;-82
2022/03/09 00:17:52;;;;;;;4.97;3.08;;;4.20;99.90;;;;;;5028461;28;20275;-84
2022/03/09 00:20:18;;;;;;;4.30;3.30;;;5.10;99.90;;;;;;5027453;28;20044;-84
2022/03/09 00:22:44;;;;;;;5.82;3.20;;;4.10;99.90;;;;;;5012279;28;20041;-85
2022/03/09 00:25:09;;;;;;;5.13;2.92;;;4.00;99.90;;;;;;5011730;28;20035;-85
2022/03/09 00:27:35;;;;;;;5.15;3.20;;;4.10;99.90;;;;;;5032533;28;20091;-84
2022/03/09 00:30:01;;;;;;;4.80;3.03;;;4.00;99.90;;;;;;5004464;28;20037;-84
2022/03/09 00:32:28;;;;;;;5.47;3.28;;;4.00;99.90;;;;;;5022049;28;20033;-84
2022/03/09 00:34:53;;;;;;;6.45;3.60;;;4.00;99.90;;;;;;4995918;28;20396;-85
2022/03/09 00:37:19;;;;;;;5.78;3.40;;;3.90;99.90;;;;;;5009062;28;20037;-84
2022/03/09 00:39:45;;;;;;;8.15;3.45;;;3.90;99.90;;;;;;5024244;28;20037;-84
2022/03/09 00:42:10;;;;;;;4.10;3.00;;;3.90;99.90;;;;;;5026630;28;20033;-84
2022/03/09 00:44:36;;;;;;;6.35;3.35;;;3.90;99.90;;;;;;5008667;28;20119;-84
2022/03/09 00:47:03;;;;;;;5.20;3.25;;;3.90;99.90;;;;;;5004371;28;20065;-84
2022/03/09 00:49:28;;;;;;;6.20;3.08;;;3.80;99.90;;;;;;4991052;28;20132;-84
2022/03/09 00:51:54;;;;;;;5.60;3.17;;;3.70;99.90;;;;;;5025560;28;20167;-84
2022/03/09 00:54:20;;;;;;;5.93;3.40;;;3.70;99.90;;;;;;4993665;28;20091;-84
2022/03/09 00:56:45;;;;;;;4.35;3.30;;;3.70;99.90;;;;;;5019483;28;20400;-84
2022/03/09 00:59:11;;;;;;;5.88;3.63;;;3.60;99.90;;;;;;5019388;28;20039;-84
2022/03/09 01:01:37;;;;;;;7.37;3.73;;;3.60;99.90;;;;;;5003874;28;20045;-84
2022/03/09 01:04:03;;;;;;;5.53;3.50;;;4.50;99.90;;;;;;5002226;28;20037;-85
2022/03/09 01:06:28;;;;;;;4.50;3.20;;;3.60;99.90;;;;;;5003613;28;20052;-84
2022/03/09 01:08:55;;;;;;;5.53;3.35;;;4.50;99.90;;;;;;5019793;28;20032;-84
2022/03/09 01:11:20;;;;;;;6.93;3.60;;;4.60;99.90;;;;;;5020554;28;20042;-85
2022/03/09 01:13:46;;;;;;;5.40;3.60;;;4.20;99.90;;;;;;5011663;28;20507;-84
2022/03/09 01:16:12;;;;;;;6.27;3.67;;;3.50;99.90;;;;;;5007842;28;20283;-84
2022/03/09 01:18:37;;;;;;;4.38;3.17;;;4.50;99.90;;;;;;5022886;28;20040;-84
2022/03/09 01:21:03;;;;;;;5.30;3.37;;;3.50;99.90;;;;;;4989408;28;20096;-83
2022/03/09 01:23:29;;;;;;;7.78;3.60;;;3.40;99.90;;;;;;5022450;28;22151;-84
2022/03/09 01:25:55;;;;;;;6.05;3.90;;;3.40;99.90;;;;;;5017697;28;20044;-85
2022/03/09 01:28:20;;;;;;;5.87;3.40;;;3.40;99.90;;;;;;5024706;28;20048;-84
2022/03/09 01:30:46;;;;;;;5.30;3.67;;;3.30;99.90;;;;;;5026932;28;20300;-84
2022/03/09 01:33:12;;;;;;;6.80;3.13;;;3.20;99.90;;;;;;5028924;28;20279;-85
2022/03/09 01:35:38;;;;;;;6.38;3.50;;;3.20;99.90;;;;;;5010969;28;20029;-84
2022/03/09 01:38:03;;;;;;;6.78;3.85;;;3.20;99.90;;;;;;5026529;28;20040;-84
2022/03/09 01:40:29;;;;;;;7.67;3.80;;;3.10;99.90;;;;;;4992019;28;20040;-84
2022/03/09 01:42:55;;;;;;;6.57;3.65;;;3.10;99.90;;;;;;5026666;28;20379;-84
2022/03/09 01:45:21;;;;;;;5.13;3.78;;;3.10;99.90;;;;;;5012116;28;21846;-83
2022/03/09 01:47:48;;;;;;;5.13;3.60;;;3.00;99.90;;;;;;5022470;28;20099;-84
2022/03/09 01:50:14;;;;;;;6.55;3.83;;;3.10;99.90;;;;;;5028373;28;20053;-84
2022/03/09 01:52:41;;;;;;;6.68;3.78;;;3.00;99.90;;;;;;5024886;28;20055;-84
2022/03/09 01:55:07;;;;;;;8.00;4.13;;;3.60;99.90;;;;;;5009287;28;20037;-84
2022/03/09 01:57:33;;;;;;;6.03;3.80;;;2.90;99.90;;;;;;5000106;28;20029;-84
2022/03/09 01:59:59;;;;;;;7.43;4.22;;;2.80;99.90;;;;;;5023757;28;20025;-85
2022/03/09 02:02:25;;;;;;;6.25;3.85;;;3.70;99.90;;;;;;5013706;28;20083;-84
2022/03/09 02:04:51;;;;;;;6.32;3.85;;;2.70;99.90;;;;;;5014772;28;20527;-84
2022/03/09 02:07:17;;;;;;;8.23;4.05;;;2.80;99.90;;;;;;5023642;28;20060;-84
2022/03/09 02:09:44;;;;;;;6.10;4.10;;;2.60;99.90;;;;;;5002064;28;20042;-84
2022/03/09 02:12:16;;;;;;;6.60;4.28;;;2.60;99.90;;;;;;5027761;28;20033;-83
2022/03/09 02:14:48;;;;;;;7.70;4.30;;;3.70;99.90;;;;;;5028562;28;20412;-84
2022/03/09 02:17:17;;;;;;;5.85;3.95;;;2.50;99.90;;;;;;5022942;28;20045;-84
2022/03/09 02:19:46;;;;;;;5.50;4.15;;;2.40;99.90;;;;;;5026163;28;20033;-84
2022/03/09 02:22:34;;;;;;;5.93;3.85;;;3.60;99.90;;;;;;5020576;28;20705;-84
2022/03/09 02:25:02;;;;;;;6.80;4.13;;;2.40;99.90;;;;;;5022315;28;20041;-85
2022/03/09 02:27:28;;;;;;;6.32;4.05;;;2.40;99.90;;;;;;5018972;28;20661;-84
2022/03/09 02:29:55;;;;;;;7.70;4.25;;;3.60;99.90;;;;;;5023278;28;20043;-84
2022/03/09 02:32:21;;;;;;;;;;;2.40;99.90;;;;;;5011454;28;20103;-84
2022/03/09 02:34:47;;;;;;;7.93;4.15;;;2.30;99.90;;;;;;5023660;28;19920;-84
2022/03/09 02:37:13;;;;;;;7.82;4.65;;;3.60;99.90;;;;;;5009334;28;20044;-84
2022/03/09 02:39:39;;;;;;;8.77;4.28;;;2.40;99.90;;;;;;5010277;28;20481;-84
2022/03/09 02:42:05;;;;;;;7.40;4.90;;;2.40;99.90;;;;;;5017722;28;20037;-84
2022/03/09 02:44:31;;;;;;;;;;;2.40;99.90;;;;;;5026247;28;20041;-84
2022/03/09 02:46:57;;;;;;;7.03;4.45;;;2.40;99.90;;;;;;5022298;28;19964;-84
2022/03/09 02:49:23;;;;;;;9.38;4.63;;;3.00;99.90;;;;;;5026157;28;20049;-84
2022/03/09 02:51:49;;;;;;;8.55;4.85;;;2.30;99.90;;;;;;5009158;28;20048;-84
2022/03/09 02:54:16;;;;;;;7.45;4.60;;;2.30;99.90;;;;;;5029855;28;20038;-83
2022/03/09 02:56:41;;;;;;;7.22;4.40;;;2.30;99.90;;;;;;5008791;28;20048;-83
2022/03/09 02:59:07;;;;;;;7.10;4.78;;;2.30;99.90;;;;;;5009206;28;20029;-84
2022/03/09 03:01:33;;;;;;;7.43;4.40;;;2.40;99.90;;;;;;5007592;28;20037;-84
2022/03/09 03:03:59;;;;;;;6.20;4.25;;;2.20;99.90;;;;;;5009775;28;20272;-84
2022/03/09 03:06:25;;;;;;;6.47;4.87;;;2.40;99.90;;;;;;5025319;28;20121;-84
2022/03/09 03:08:51;;;;;;;7.70;4.70;;;2.10;99.90;;;;;;5003771;28;20288;-84
2022/03/09 03:11:17;;;;;;;6.10;4.60;;;2.10;99.90;;;;;;5022376;28;20036;-84
2022/03/09 03:13:43;;;;;;;7.68;4.70;;;2.10;99.90;;;;;;5012612;28;20037;-84
2022/03/09 03:16:09;;;;;;;8.52;5.22;;;2.00;99.90;;;;;;5003272;28;20033;-84
2022/03/09 03:18:35;;;;;;;;;;;2.00;99.90;;;;;;5029691;28;20057;-83
2022/03/09 03:21:02;;;;;;;7.75;4.60;;;1.90;99.90;;;;;;5024551;28;19967;-83
2022/03/09 03:23:29;;;;;;;10.55;5.05;;;1.90;99.90;;;;;;5023403;28;20047;-83
2022/03/09 03:25:55;;;;;;;8.40;4.72;;;1.80;99.90;;;;;;5022198;28;20033;-83
2022/03/09 03:28:22;;;;;;;8.75;5.15;;;1.80;99.90;;;;;;5009969;28;20048;-84
2022/03/09 03:30:48;;;;;;;9.05;5.15;;;1.80;99.90;;;;;;5007918;28;20087;-84
2022/03/09 03:33:15;;;;;;;8.57;4.90;;;1.80;99.90;;;;;;5026547;28;20048;-84
2022/03/09 03:35:42;;;;;;;7.88;4.70;;;1.80;99.90;;;;;;5008149;28;20034;-84
2022/03/09 03:38:08;;;;;;;9.73;5.82;;;1.80;99.90;;;;;;5005646;28;20033;-84
2022/03/09 03:40:35;;;;;;;8.15;5.05;;;1.80;99.90;;;;;;5020153;28;20086;-83
2022/03/09 03:43:00;;;;;;;;;;;1.90;99.90;;;;;;5020986;28;20505;-84
2022/03/09 03:45:26;;;;;;;8.05;5.43;;;2.70;99.90;;;;;;5024465;28;19917;-84
2022/03/09 03:47:52;;;;;;;9.20;5.32;;;1.80;99.90;;;;;;5019707;28;20401;-84
2022/03/09 03:50:18;;;;;;;9.45;5.30;;;1.80;99.90;;;;;;5018184;28;20053;-84
2022/03/09 03:52:44;;;;;;;7.80;4.88;;;1.80;99.90;;;;;;4999621;28;20152;-83
2022/03/09 03:55:10;;;;;;;9.38;5.30;;;1.80;99.90;;;;;;5023679;28;20182;-83
2022/03/09 03:57:36;;;;;;;8.48;5.22;;;2.20;99.90;;;;;;5005019;28;20132;-84
2022/03/09 04:00:04;;;;;;;8.57;5.33;;;2.00;99.90;;;;;;5007450;28;20123;-83
2022/03/09 04:02:29;;;;;;;11.38;5.50;;;1.70;99.90;;;;;;5022423;28;20306;-84
2022/03/09 04:04:55;;;;;;;11.02;5.40;;;1.70;99.90;;;;;;5020739;28;20128;-84
2022/03/09 04:07:21;;;;;;;10.67;6.20;;;1.70;99.90;;;;;;5021585;28;20041;-84
2022/03/09 04:09:46;;;;;;;8.53;5.27;;;1.70;99.90;;;;;;5025953;28;20122;-83
2022/03/09 04:12:12;;;;;;;8.45;5.97;;;1.70;99.90;;;;;;4993288;28;20295;-83
2022/03/09 04:14:38;;;;;;;11.38;5.60;;;1.70;99.90;;;;;;5021605;28;20045;-84
2022/03/09 04:17:04;;;;;;;8.82;5.50;;;1.70;99.90;;;;;;5009880;28;20037;-84
2022/03/09 04:19:29;;;;;;;10.05;5.70;;;2.60;99.90;;;;;;5026688;28;20040;-84
2022/03/09 04:21:55;;;;;;;8.15;5.35;;;1.70;99.90;;;;;;5009988;28;20124;-84
2022/03/09 04:24:21;;;;;;;8.57;5.38;;;1.70;99.90;;;;;;5020842;28;20179;-84
2022/03/09 04:26:47;;;;;;;7.97;5.32;;;1.70;99.90;;;;;;5008938;28;20403;-84
2022/03/09 04:29:13;;;;;;;8.63;4.47;;;1.60;99.90;;;;;;5025237;28;20048;-83
2022/03/09 04:31:39;;;;;;;7.45;5.25;;;1.90;99.90;;;;;;5022665;28;20387;-84
2022/03/09 04:34:05;;;;;;;8.27;5.72;;;1.60;99.90;;;;;;5021168;28;20424;-83
2022/03/09 04:36:31;;;;;;;10.45;5.65;;;1.60;99.90;;;;;;5027718;28;20087;-83
2022/03/09 04:38:57;;;;;;;8.55;5.40;;;2.80;99.90;;;;;;4998936;28;20037;-83
2022/03/09 04:41:22;;;;;;;8.77;5.70;;;1.50;99.90;;;;;;5009148;28;20042;-84
2022/03/09 04:43:48;;;;;;;10.25;6.10;;;1.50;99.90;;;;;;5004741;28;20624;-83
2022/03/09 04:46:14;;;;;;;9.02;5.45;;;2.20;99.90;;;;;;5004237;28;20037;-84
2022/03/09 04:48:40;;;;;;;11.05;6.32;;;1.50;99.90;;;;;;5022491;28;20045;-84
2022/03/09 04:51:06;;;;;;;8.65;5.63;;;1.40;99.90;;;;;;5034315;28;20064;-84
2022/03/09 04:53:32;;;;;;;9.30;5.97;;;1.40;99.90;;;;;;5019964;28;20036;-84
2022/03/09 04:55:58;;;;;;;9.88;5.80;;;3.30;99.90;;;;;;5025812;28;20033;-84
2022/03/09 04:58:24;;;;;;;9.10;5.95;;;1.40;99.90;;;;;;5025345;28;20116;-84
2022/03/09 05:00:50;;;;;;;8.60;5.32;;;1.50;99.90;;;;;;4999756;28;20037;-84
2022/03/09 05:03:16;;;;;;;8.15;5.50;;;1.30;99.90;;;;;;5021482;28;20037;-84
2022/03/09 05:05:42;;;;;;;8.65;5.68;;;2.20;99.90;;;;;;5021713;28;20124;-84
2022/03/09 05:08:09;;;;;;;8.55;5.20;;;1.30;99.90;;;;;;5006683;28;20485;-84
2022/03/09 05:10:35;;;;;;;10.32;5.53;;;1.30;99.90;;;;;;5023317;28;20041;-84
2022/03/09 05:13:01;;;;;;;12.13;5.78;;;2.50;99.90;;;;;;5027107;28;20044;-82
2022/03/09 05:15:27;;;;;;;10.75;6.18;;;1.30;99.90;;;;;;5006351;28;20041;-84
2022/03/09 05:17:53;;;;;;;9.20;5.85;;;1.30;99.90;;;;;;4991305;28;20044;-83
2022/03/09 05:20:20;;;;;;;7.40;5.50;;;2.10;99.90;;;;;;5019581;28;20053;-83
2022/03/09 05:22:47;;;;;;;9.55;5.88;;;1.20;99.90;;;;;;5015207;28;20108;-83
2022/03/09 05:25:14;;;;;;;10.13;6.30;;;1.20;99.90;;;;;;5025659;28;20120;-84
2022/03/09 05:27:40;;;;;;;10.32;6.20;;;1.20;99.90;;;;;;5024223;28;20175;-83
2022/03/09 05:30:09;;;;;;;11.48;6.43;;;1.20;99.90;;;;;;5009718;28;20041;-84
2022/03/09 05:32:35;;;;;;;10.05;6.10;;;1.20;99.90;;;;;;5007091;28;20112;-81
2022/03/09 05:35:01;;;;;;;;;;;1.20;99.90;;;;;;5023832;28;20044;-82
2022/03/09 05:37:28;;;;;;;10.50;6.07;;;1.20;99.90;;;;;;5025362;28;20388;-82
2022/03/09 05:39:54;;;;;;;10.20;6.25;;;1.10;99.90;;;;;;5008656;28;20035;-81
2022/03/09 05:42:20;;;;;;;8.75;5.97;;;1.10;99.90;;;;;;4988881;28;20146;-83
2022/03/09 05:44:46;;;;;;;10.40;6.20;;;1.20;99.90;;;;;;5006016;28;20096;-81
2022/03/09 05:47:12;;;;;;;11.70;6.47;;;1.10;99.90;;;;;;5019292;28;20040;-80
2022/03/09 05:49:38;;;;;;;9.93;5.88;;;2.10;99.90;;;;;;5020004;28;20045;-81
2022/03/09 05:52:04;;;;;;;9.80;6.07;;;1.10;99.90;;;;;;5022583;28;20524;-81
2022/03/09 05:54:30;;;;;;;9.60;6.22;;;1.10;99.90;;;;;;5003831;28;20041;-83
2022/03/09 05:56:55;;;;;;;9.93;6.60;;;1.00;99.90;;;;;;5024558;28;20052;-83
2022/03/09 05:59:21;;;;;;;10.37;5.87;;;1.00;99.90;;;;;;5017190;28;20393;-83
2022/03/09 06:01:47;;;;;;;11.03;6.60;;;1.10;99.90;;;;;;5004446;28;20284;-83
2022/03/09 06:04:13;;;;;;;10.70;6.15;;;1.10;99.90;;;;;;4989678;28;20560;-83
2022/03/09 06:06:38;;;;;;;11.33;6.10;;;1.00;99.90;;;;;;5022694;28;20045;-83
2022/03/09 06:09:04;;;;;;;10.57;6.55;;;1.00;99.90;;;;;;4989764;28;20064;-83
2022/03/09 06:11:30;;;;;;;9.65;6.40;;;1.10;99.90;;;;;;5019232;28;21104;-83
2022/03/09 06:13:55;;;;;;;9.88;6.15;;;1.10;99.90;;;;;;5024099;28;20719;-83
2022/03/09 06:16:21;;;;;;;11.60;6.97;;;1.00;99.90;;;;;;5025217;28;20466;-83
2022/03/09 06:18:47;;;;;;;10.05;5.97;;;2.60;99.90;;;;;;5023181;28;20044;-83
2022/03/09 06:21:15;;;;;;;11.27;6.37;;;1.00;99.90;;;;;;5026331;28;20555;-83
2022/03/09 06:23:42;;;;;;;9.30;6.38;;;1.00;99.90;;;;;;5009477;28;20041;-83
2022/03/09 06:26:07;;;;;;;11.25;6.40;;;1.00;99.90;;;;;;5009518;28;20497;-82
2022/03/09 06:28:33;;;;;;;11.02;6.80;;;1.00;99.90;;;;;;5028206;28;20094;-83
2022/03/09 06:30:59;;;;;;;10.55;6.70;;;1.00;99.90;;;;;;5013999;28;20069;-83
2022/03/09 06:33:25;;;;;;;9.30;6.22;;;1.00;99.90;;;;;;5007905;28;20535;-83
2022/03/09 06:35:51;;;;;;;10.13;6.22;;;2.90;99.90;;;;;;5023535;28;20400;-83
2022/03/09 06:38:17;;;;;;;10.47;6.33;;;1.10;99.90;;;;;;5013671;28;20033;-83
2022/03/09 06:40:43;;;;;;;8.90;6.32;;;1.20;99.90;;;;;;5007486;28;20364;-83
2022/03/09 06:43:09;;;;;;;9.50;5.95;;;1.20;99.90;;;;;;5006367;28;20065;-84
2022/03/09 06:45:35;;;;;;;11.25;6.30;;;1.30;99.90;;;;;;5030465;28;20527;-83
2022/03/09 06:48:02;;;;;;;9.15;6.15;;;1.40;99.90;;;;;;5025501;28;20041;-83
2022/03/09 06:50:28;;;;;;;;;;;1.50;99.90;;;;;;5003976;28;20081;-83
2022/03/09 06:52:53;;;;;;;10.07;5.97;;;1.50;99.90;;;;;;5008843;28;19975;-83
2022/03/09 06:55:19;;;;;;;10.77;6.20;;;1.60;99.90;;;;;;5008913;28;20044;-82
2022/03/09 06:57:45;;;;;;;10.13;6.47;;;1.50;99.90;;;;;;5005233;28;20048;-83
2022/03/09 07:00:16;;;;;;;9.98;6.15;;;1.80;99.90;;;;;;5027365;28;20041;-83
2022/03/09 07:02:43;;;;;;;13.13;6.22;;;2.00;99.90;;;;;;5020239;28;20080;-83
2022/03/09 07:05:09;;;;;;;9.15;6.13;;;2.10;99.90;;;;;;5010858;28;20029;-84
2022/03/09 07:07:36;;;;;;;12.77;6.43;;;3.20;99.90;;;;;;5008062;28;20044;-84
2022/03/09 07:10:02;;;;;;;10.13;6.63;;;3.80;99.90;;;;;;5025567;28;20036;-83
2022/03/09 07:12:28;;;;;;;13.45;6.03;;;2.40;99.90;;;;;;5022138;28;20034;-83
2022/03/09 07:14:53;;;;;;;11.53;6.77;;;2.70;99.90;;;;;;5025599;28;20109;-84
2022/03/09 07:17:19;;;;;;;10.20;6.13;;;2.90;99.90;;;;;;5021759;28;20040;-83
2022/03/09 07:19:45;;;;;;;11.57;6.77;;;2.70;99.90;;;;;;5027439;28;20116;-84
2022/03/09 07:22:11;;;;;;;10.32;6.00;;;2.90;99.90;;;;;;5025110;28;20038;-83
2022/03/09 07:24:36;;;;;;;11.02;6.53;;;3.70;99.90;;;;;;5029077;28;20040;-83
2022/03/09 07:27:02;;;;;;;10.32;6.03;;;3.10;99.90;;;;;;5022000;28;20099;-83
2022/03/09 07:29:28;;;;;;;9.23;6.32;;;3.30;99.90;;;;;;5022257;28;20094;-84
2022/03/09 07:31:54;;;;;;;13.03;6.27;;;3.40;99.90;;;;;;5027240;28;20025;-83
2022/03/09 07:34:22;;;;;;;10.30;6.20;;;3.60;99.90;;;;;;5024165;28;20281;-84
2022/03/09 07:36:49;;;;;;;12.15;6.78;;;3.70;99.90;;;;;;5024570;28;20072;-83
2022/03/09 07:39:15;;;;;;;10.38;6.13;;;3.90;99.90;;;;;;5008335;28;20033;-84
2022/03/09 07:41:41;;;;;;;9.73;6.43;;;4.00;99.90;;;;;;5005465;28;20038;-85
2022/03/09 07:44:07;;;;;;;9.27;5.75;;;4.30;99.90;;;;;;4991349;28;20049;-84
2022/03/09 07:46:34;;;;;;;10.60;5.95;;;5.80;99.90;;;;;;4989108;28;20040;-83
2022/03/09 07:48:59;;;;;;;9.77;5.68;;;5.10;99.90;;;;;;5005158;28;20523;-84
2022/03/09 07:51:25;;;;;;;11.38;5.70;;;5.10;99.90;;;;;;4990766;28;20048;-83
2022/03/09 07:53:51;;;;;;;9.80;5.93;;;5.20;99.90;;;;;;5026587;28;20044;-82
2022/03/09 07:56:17;;;;;;;10.00;5.83;;;5.60;99.90;;;;;;5019175;28;20488;-83
2022/03/09 07:58:42;;;;;;;8.73;5.10;;;5.90;99.90;;;;;;5026420;28;20087;-82
2022/03/09 08:01:08;;;;;;;9.25;5.78;;;7.00;99.90;;;;;;5013000;28;20064;-83
2022/03/09 08:03:34;;;;;;;10.02;5.88;;;7.70;99.90;;;;;;5009301;28;20099;-84
2022/03/09 08:06:00;;;;;;;8.77;4.88;;;8.40;98.50;;;;;;5009694;28;20033;-83
2022/03/09 08:08:27;;;;;;;7.15;5.25;;;8.90;99.10;;;;;;5022832;28;20045;-84
2022/03/09 08:10:52;;;;;;;8.75;5.38;;;9.50;98.80;;;;;;5023351;28;20068;-84
2022/03/09 08:13:18;;;;;;;9.70;5.50;;;10.20;96.60;;;;;;5025736;28;20080;-83
2022/03/09 08:15:44;;;;;;;9.98;5.45;;;10.30;92.50;;;;;;4991458;28;20154;-83
2022/03/09 08:18:09;;;;;;;12.40;5.55;;;10.90;94.10;;;;;;5009813;28;20041;-83
2022/03/09 08:20:35;;;;;;;8.32;5.78;;;10.90;91.30;;;;;;5009484;28;20041;-83
2022/03/09 08:23:01;;;;;;;7.55;5.28;;;11.50;90.30;;;;;;4991037;28;20032;-83
2022/03/09 08:25:27;;;;;;;7.85;5.13;;;11.60;83.50;;;;;;5022364;28;20025;-83
2022/03/09 08:27:53;;;;;;;8.02;5.13;;;12.30;84.00;;;;;;5008237;28;20037;-83
2022/03/09 08:30:19;;;;;;;10.70;5.47;;;12.70;82.30;;;;;;4988569;28;20043;-83
2022/03/09 08:32:44;;;;;;;8.25;5.03;;;12.60;78.90;;;;;;4987353;28;20045;-83
2022/03/09 08:35:10;;;;;;;7.18;5.20;;;12.70;77.50;;;;;;4972765;28;20040;-85
2022/03/09 08:37:36;;;;;;;7.35;5.40;;;13.00;75.50;;;;;;5001270;28;20057;-85
2022/03/09 08:40:03;;;;;;;7.25;4.97;;;13.10;75.70;;;;;;4988801;28;20032;-85
2022/03/09 08:42:28;;;;;;;6.78;4.68;;;13.30;71.60;;;;;;5029676;28;20131;-83
2022/03/09 08:44:54;;;;;;;10.10;5.10;;;13.60;72.50;;;;;;5024156;28;20120;-83
2022/03/09 08:47:19;;;;;;;8.05;5.05;;;13.70;70.70;;;;;;4989149;28;20500;-83
2022/03/09 08:49:45;;;;;;;9.27;5.38;;;13.90;71.20;;;;;;5003373;28;20101;-83
2022/03/09 08:52:12;;;;;;;8.27;5.57;;;14.10;69.50;;;;;;5008985;28;20041;-84
2022/03/09 08:54:40;;;;;;;9.23;5.60;;;14.30;67.90;;;;;;4983540;28;20040;-87
2022/03/09 08:57:05;;;;;;;8.38;5.47;;;14.00;68.90;;;;;;5023742;28;20116;-83
2022/03/09 08:59:31;;;;;;;7.97;5.00;;;14.10;68.30;;;;;;5024768;28;20116;-86
2022/03/09 09:01:59;;;;;;;9.23;5.32;;;14.30;66.50;;;;;;4992476;28;20044;-83
2022/03/09 09:04:25;;;;;;;9.45;5.38;;;14.80;66.60;;;;;;4988832;28;20390;-83
2022/03/09 09:06:51;;;;;;;9.07;5.28;;;14.60;65.10;;;;;;5010317;28;20051;-83
2022/03/09 09:09:17;;;;;;;9.73;5.10;;;14.70;65.40;;;;;;4982996;28;20041;-83
2022/03/09 09:11:44;;;;;;;7.95;5.18;;;15.40;64.70;;;;;;5002130;28;20044;-84
2022/03/09 09:14:10;;;;;;;7.25;4.80;;;15.10;64.00;;;;;;5005944;28;20083;-83
2022/03/09 09:16:36;;;;;;;8.60;5.07;;;15.10;63.50;;;;;;4998655;28;20063;-83
2022/03/09 09:19:02;;;;;;;8.45;5.38;;;15.20;63.50;;;;;;4991332;28;20033;-83
2022/03/09 09:21:28;;;;;;;6.80;4.88;;;15.30;63.50;;;;;;5021767;28;20045;-84
2022/03/09 09:23:55;;;;;;;9.85;5.60;;;16.10;62.70;;;;;;5004476;28;20120;-83
2022/03/09 09:26:21;;;;;;;7.97;5.25;;;16.20;61.40;;;;;;4984427;28;20437;-84
2022/03/09 09:28:46;;;;;;;8.38;5.03;;;15.70;62.50;;;;;;4989912;28;20075;-84
2022/03/09 09:31:12;;;;;;;7.68;5.10;;;16.30;62.20;;;;;;4985115;28;20111;-84
2022/03/09 09:33:38;;;;;;;8.00;5.18;;;16.70;61.50;;;;;;4993889;28;20510;-84
2022/03/09 09:36:04;;;;;;;8.60;5.10;;;16.80;62.70;;;;;;5008349;28;20474;-84
2022/03/09 09:38:30;;;;;;;11.60;5.30;;;17.30;61.00;;;;;;5003868;28;20370;-84
2022/03/09 09:40:57;;;;;;;8.07;5.60;;;17.10;60.60;;;;;;4997676;28;20082;-84
2022/03/09 09:43:23;;;;;;;;;;;17.30;59.50;;;;;;5022145;28;20132;-84
2022/03/09 09:45:50;;;;;;;7.60;4.78;;;17.60;57.80;;;;;;5006808;28;19932;-83
2022/03/09 09:48:17;;;;;;;9.27;5.20;;;17.70;57.50;;;;;;5022400;28;20076;-83
2022/03/09 09:50:43;;;;;;;9.07;5.68;;;17.60;57.70;;;;;;5009077;28;20060;-85
2022/03/09 09:53:11;;;;;;;6.80;4.90;;;17.50;57.30;;;;;;4993273;28;20485;-84
2022/03/09 09:55:38;;;;;;;7.30;5.15;;;17.30;57.70;;;;;;5006586;28;20030;-83
2022/03/09 09:58:04;;;;;;;7.38;5.28;;;17.20;57.60;;;;;;5023957;28;20029;-84
2022/03/09 10:00:32;;;;;;;15.68;5.82;;;17.00;58.40;;;;;;4994289;28;20147;-83
2022/03/09 10:02:58;;;;;;;7.97;5.20;;;17.00;58.40;;;;;;5019692;28;20120;-84
2022/03/09 10:05:25;;;;;;;10.10;5.80;;;17.10;58.90;;;;;;5009179;28;20033;-84
2022/03/09 10:08:03;;;;;;;7.68;5.40;;;17.40;59.20;;;;;;5008114;28;20400;-83
2022/03/09 10:10:38;;;;;;;7.22;5.53;;;17.90;58.10;;;;;;5019354;28;20396;-83
2022/03/09 10:13:19;;;;;;;7.80;5.38;;;18.10;56.70;;;;;;5010602;28;20072;-83
2022/03/09 10:15:47;;;;;;;9.18;5.53;;;17.90;56.70;;;;;;5024318;28;20400;-83
2022/03/09 10:18:15;;;;;;;7.22;5.15;;;18.30;56.60;;;;;;5024180;28;20063;-83
2022/03/09 10:20:42;;;;;;;9.63;5.53;;;18.10;55.70;;;;;;5026295;28;20508;-83
2022/03/09 10:23:08;;;;;;;7.57;5.38;;;18.50;55.60;;;;;;4995332;28;20033;-83
2022/03/09 10:25:34;;;;;;;8.18;5.18;;;18.80;56.90;;;;;;5006067;28;20033;-84
2022/03/09 10:28:08;;;;;;;8.60;5.35;;;18.60;56.00;;;;;;5024901;28;20029;-85
2022/03/09 10:30:35;;;;;;;8.50;5.40;;;19.20;56.10;;;;;;5006639;28;20069;-84
2022/03/09 10:33:04;;;;;;;8.98;5.45;;;19.20;56.20;;;;;;5010975;28;20535;-84
2022/03/09 10:35:29;;;;;;;7.93;5.53;;;19.50;56.40;;;;;;5002394;28;20512;-84
2022/03/09 10:38:00;;;;;;;7.85;5.13;;;19.50;56.20;;;;;;5006693;28;20041;-85
2022/03/09 10:40:28;;;;;;;10.60;5.78;;;19.90;55.70;;;;;;5003103;28;20060;-84
2022/03/09 10:43:23;;;;;;;6.43;5.50;;;19.90;55.10;;;;;;5012652;28;20514;-84
2022/03/09 10:45:59;;;;;;;9.40;6.50;;;19.70;53.50;;;;;;5025318;28;20493;-84
2022/03/09 10:48:26;;;;;;;7.43;5.38;;;19.70;54.10;;;;;;4990129;28;20141;-85
2022/03/09 10:50:54;;;;;;;7.20;5.22;;;20.30;53.60;;;;;;5012243;28;20039;-84
2022/03/09 10:53:20;;;;;;;9.10;5.30;;;20.10;54.10;;;;;;5022430;28;20041;-83
2022/03/09 10:55:47;;;;;;;9.27;5.32;;;20.60;54.50;;;;;;5009338;28;20041;-84
2022/03/09 10:58:36;;;;;;;7.43;5.07;;;20.70;54.30;;;;;;4995230;28;20040;-83
2022/03/09 11:01:02;;;;;;;8.70;5.60;;;20.80;52.50;;;;;;4996658;28;20148;-82
2022/03/09 11:03:33;;;;;;;8.55;5.30;;;20.40;53.20;;;;;;5030004;28;20072;-81
2022/03/09 11:06:02;;;;;;;8.18;5.80;;;20.30;52.00;;;;;;5027881;28;20036;-84
2022/03/09 11:08:30;;;;;;;7.55;5.25;;;20.10;52.80;;;;;;5022265;28;20069;-85
2022/03/09 11:11:00;;;;;;;7.22;5.40;;;20.20;52.90;;;;;;5007595;28;20458;-85
2022/03/09 11:13:28;;;;;;;7.00;5.43;;;20.10;52.30;;;;;;5023133;28;20061;-85
2022/03/09 11:15:54;;;;;;;11.45;5.60;;;20.00;52.30;;;;;;5024775;28;20142;-85
2022/03/09 11:18:22;;;;;;;7.65;5.30;;;20.00;52.70;;;;;;5007007;28;20400;-85
2022/03/09 11:20:50;;;;;;;7.28;5.75;;;20.40;52.10;;;;;;5004601;28;20048;-85
2022/03/09 11:23:17;;;;;;;8.70;5.80;;;19.60;51.70;;;;;;5006919;28;20037;-83
2022/03/09 11:25:52;;;;;;;8.65;5.80;;;20.20;50.60;;;;;;4979572;28;20029;-85
2022/03/09 11:28:26;;;;;;;8.27;5.68;;;19.90;51.40;;;;;;5029477;28;20029;-83
2022/03/09 11:31:02;;;;;;;7.45;5.50;;;19.90;51.90;;;;;;4999534;28;20520;-84
2022/03/09 11:33:49;;;;;;;8.02;5.22;;;20.50;51.80;;;;;;5020113;28;20040;-85
2022/03/09 11:36:24;;;;;;;8.35;5.88;;;20.20;51.10;;;;;;5021768;28;20518;-84
2022/03/09 11:39:17;;;;;;;7.88;6.10;;;20.90;51.30;;;;;;5009791;28;20037;-83
2022/03/09 11:41:44;;;;;;;7.50;5.40;;;20.80;52.30;;;;;;5001378;28;20124;-83
2022/03/09 11:44:19;;;;;;;8.07;5.53;;;21.20;50.20;;;;;;5019568;28;20069;-84
2022/03/09 11:47:15;;;;;;;6.75;5.50;;;20.70;51.00;;;;;;5005031;28;20038;-84
2022/03/09 11:49:41;;;;;;;8.07;5.85;;;21.50;51.60;;;;;;4996449;28;20099;-86
2022/03/09 11:52:12;;;;;;;8.05;5.00;;;21.40;49.60;;;;;;5007201;28;20148;-85
2022/03/09 11:54:46;;;;;;;9.80;6.05;;;21.70;49.30;;;;;;5009515;28;20037;-85
2022/03/09 11:57:14;;;;;;;8.73;6.15;;;21.50;50.50;;;;;;5014448;28;20065;-85
2022/03/09 12:00:08;;;;;;;7.60;5.68;;;20.80;52.20;;;;;;5026245;28;20040;-84
2022/03/09 12:02:45;;;;;;;9.90;6.00;;;21.10;53.80;;;;;;5007175;28;20079;-86
2022/03/09 12:05:35;;;;;;;7.75;5.57;;;20.80;51.70;;;;;;4991278;28;20123;-84
2022/03/09 12:08:01;;;;;;;7.72;5.88;;;20.70;52.90;;;;;;5012813;28;20496;-84
2022/03/09 12:10:53;;;;;;;9.35;5.82;;;20.90;52.40;;;;;;5021696;28;20049;-83
2022/03/09 12:13:22;;;;;;;7.82;6.18;;;20.70;53.00;;;;;;5004756;28;20051;-83
2022/03/09 12:16:14;;;;;;;7.18;5.88;;;20.90;52.30;;;;;;4992921;28;20029;-83
2022/03/09 12:18:45;;;;;;;8.48;5.80;;;20.70;52.30;;;;;;5005728;28;20445;-84
2022/03/09 12:21:17;;;;;;;9.18;6.28;;;21.30;51.80;;;;;;5007728;28;20069;-83
2022/03/09 12:24:05;;;;;;;8.93;5.50;;;20.60;52.10;;;;;;5005605;28;20619;-81
2022/03/09 12:26:50;;;;;;;12.68;6.53;;;21.30;51.10;;;;;;5028180;28;20040;-81
2022/03/09 12:29:21;;;;;;;8.93;5.85;;;21.80;51.30;;;;;;5026487;28;20036;-82
2022/03/09 12:32:14;;;;;;;7.25;5.80;;;21.40;51.10;;;;;;5007129;28;20036;-82
2022/03/09 12:34:50;;;;;;;8.55;5.72;;;21.40;51.60;;;;;;5025047;28;20107;-79
2022/03/09 12:37:18;;;;;;;9.63;5.72;;;21.00;51.40;;;;;;5007301;28;20056;-81
2022/03/09 12:39:49;;;;;;;11.50;6.20;;;21.40;52.30;;;;;;5002268;28;20528;-80
2022/03/09 12:42:17;;;;;;;8.95;6.07;;;21.60;51.50;;;;;;5007589;28;20493;-81
2022/03/09 12:44:43;;;;;;;8.27;6.35;;;21.00;51.90;;;;;;5026732;28;20048;-89
2022/03/09 12:47:08;;;;;;;8.93;6.13;;;21.30;52.70;;;;;;4989688;28;20037;-89
2022/03/09 12:49:54;;;;;;;7.95;6.38;;;21.60;51.10;;;;;;5022326;28;20114;-90
2022/03/09 12:52:22;;;;;;;8.63;6.03;;;21.70;50.70;;;;;;4991658;28;20049;-90
2022/03/09 12:54:53;;;;;;;8.98;6.03;;;21.40;51.60;;;;;;5018319;28;20037;-91